Lake Worth, FL

5:02 AM EDT on July 04, 2015 (GMT -0400)
Suburban Lake Worth/Lantana | | Change Station
CLOSE
Current Station
Personal Weather Station
Location: Lake Worth, FL
Elevation: 21 ft
Nearby Weather Stations

Elev 21 ft 26.60 °N, 80.16 °W | Updated 1 second ago

Mostly Cloudy
Mostly Cloudy
74.5 °F
Feels Like 74 °F
N
0.0
Wind Variable Wind from SSW
Gusts 0.0 mph

Today
High -- | Low -- °F
--% Chance of Precip.
Yesterday
High -- | Low -- °F
Precip. -- in
6:31 AM 8:17 PM
Waning Gibbous, 93% visible
Pressure 30.08 in
Visibility 10.0 miles
Clouds Few 10000 ft
Mostly Cloudy 20000 ft
Heat Index 74 °F
Dew Point 69 °F
Humidity 83%
Rainfall 0.00 in
Snow Depth Not available.
UV 0 out of 12
Pollen 4.40 out of 12
Air Quality Not available.
Flu Activity Not available.
METAR KPBI 040853Z 32003KT 10SM FEW100 BKN200 25/23 A3008 RMK AO2 SLP185 60000 T02500233 55010 $

More Conditions Fewer Conditions

Pressure 30.08 in
Visibility 10.0 miles
Clouds Few 10000 ft
Mostly Cloudy 20000 ft
Heat Index 74 °F
Dew Point 69 °F
Humidity 83%
Rainfall 0.00 in
Snow Depth Not available.
UV 0 out of 12
Pollen 4.40 out of 12
Air Quality Not available.
Flu Activity Not available.
METAR KPBI 040853Z 32003KT 10SM FEW100 BKN200 25/23 A3008 RMK AO2 SLP185 60000 T02500233 55010 $

More Conditions Fewer Conditions

10-Day Weather Forecast

×

Almanac

Astronomy

Jul. 04, 2015 Rise Set
Actual Time
Civil Twilight
Nautical Twilight
Astronomical Twilight
Moon
Length of Visible Light
Length of Day
Tomorrow will be .
, % of the Moon is Illuminated

Today's Extremes

State Highs State Lows

Community

WunderPhotos

Upload Photos

1,834,931 photos uploaded!

WunderBlogs® & News

Nearby

Air Quality

  Air Quality AQ Index Pollutant
Not available.

Snow Depth

Station Depth Elevation

Earthquake Activity

City Distance Mag. Time & Date
Minimum magnitude displayed is 2.5.

Coastal Water Temperatures

Place Temperature

Stations

Nearby Weather Stations

Station Location Temp. Windchill Dew Point Humidity Wind Precip. Elev Updated Type